Terminal Aerodrome Forecast
Issued by NWS

Home | Current Version | Previous Version | Text Only | Print | Product List | Glossary On
Versions: 1 2 3 4 5 6 7 8 9 10 11 12 13 14 15 16 17 18
090
FTUS44 KLZK 270520
TAFLLQ
TAF
KLLQ 270520Z 2706/2806 12006KT P6SM VCSH BKN025
     FM271100 11008KT P6SM VCTS BKN012CB OVC025
     FM271800 17012G22KT P6SM -SHRA VCTS SCT012 OVC025CB
     FM272100 16012KT 5SM -SHRA BR OVC020
      TEMPO 2721/2801 2SM -TSRA OVC010CB
     FM280100 17012KT 6SM BR OVC040 PROB30 2801/2806 5SM -SHRA BR
      OVC025=

USA.gov is the U.S. government's official web portal to all federal, state and local government web resources and services.